This is the latest recevied weather packets stored in our database for station/object F4JUT-10. If no packets are shown the sender has not sent any weather packets the latest 10 day(s).
| Time | Temp. | Humidity | Pressure | Rain* | Wind** | Luminosity | Snow |
|---|---|---|---|---|---|---|---|
| 1777638766 | 35.56° C | 20% | 1025.9 hPa | - | - | - | - |
| 1777637866 | 35° C | 21% | 1025.8 hPa | - | - | - | - |
| 1777636966 | 35° C | 21% | 1026 hPa | - | - | - | - |
| 1777636065 | 35° C | 20% | 1026 hPa | - | - | - | - |
| 1777635165 | 34.44° C | 22% | 1026.2 hPa | - | - | - | - |
| 1777634265 | 33.33° C | 23% | 1026.4 hPa | - | - | - | - |
| 1777633365 | 33.33° C | 23% | 1026.4 hPa | - | - | - | - |
| 1777632465 | 32.22° C | 25% | 1026.5 hPa | - | - | - | - |
| 1777631565 | 31.11° C | 27% | 1026.7 hPa | - | - | - | - |
| 1777630665 | 30° C | 29% | 1026.7 hPa | - | - | - | - |
| 1777629765 | 27.78° C | 31% | 1026.8 hPa | - | - | - | - |
| 1777628865 | 26.67° C | 35% | 1026.8 hPa | - | - | - | - |
| 1777627965 | 25° C | 38% | 1026.8 hPa | - | - | - | - |
| 1777627065 | 23.33° C | 42% | 1026.9 hPa | - | - | - | - |
| 1777626165 | 20.56° C | 50% | 1027 hPa | - | - | - | - |
| 1777625264 | 19.44° C | 53% | 1027.1 hPa | - | - | - | - |
| 1777624363 | 18.33° C | 56% | 1027.2 hPa | - | - | - | - |
| 1777623463 | 17.78° C | 59% | 1027.1 hPa | - | - | - | - |
| 1777622563 | 17.22° C | 60% | 1027 hPa | - | - | - | - |
| 1777621663 | 16.67° C | 62% | 1027 hPa | - | - | - | - |
| 1777620763 | 16.11° C | 63% | 1026.8 hPa | - | - | - | - |
| 1777619863 | 15.56° C | 65% | 1026.8 hPa | - | - | - | - |
| 1777618963 | 15° C | 69% | 1026.5 hPa | - | - | - | - |
| 1777618072 | 13.89° C | 74% | 1026.5 hPa | - | - | - | - |
| 1777617172 | 12.78° C | 78% | 1026.3 hPa | - | - | - | - |
* Rain since midnight (hover to see other rain measurements)
** Current wind speed in m/s (hover to see current wind gust speed)